createdAt,value
2023-02-02T00:02:25.213Z,97870.20
2023-02-02T00:05:01.656Z,97871.60
2023-02-02T00:07:39.105Z,97872.00
2023-02-02T00:10:17.647Z,97866.40
2023-02-02T00:12:58.213Z,97864.60
2023-02-02T00:15:34.646Z,97871.20
2023-02-02T00:18:12.200Z,97874.00
2023-02-02T00:20:49.551Z,97873.80
2023-02-02T00:23:25.775Z,97874.40
2023-02-02T00:26:02.096Z,97869.40
2023-02-02T00:28:38.759Z,97868.40
2023-02-02T00:31:15.290Z,97870.80
2023-02-02T00:33:53.464Z,97872.40
2023-02-02T00:36:29.827Z,97863.80
2023-02-02T00:39:06.991Z,97875.60
2023-02-02T00:41:43.493Z,97872.60
2023-02-02T00:44:37.732Z,97877.80
2023-02-02T00:47:14.261Z,97882.80
2023-02-02T00:49:50.564Z,97877.80
2023-02-02T00:52:26.925Z,97876.80
2023-02-02T00:55:03.389Z,97880.80
2023-02-02T00:57:39.759Z,97883.00
2023-02-02T01:00:23.671Z,97888.20
2023-02-02T01:03:04.496Z,97891.20
2023-02-02T01:05:41.236Z,97896.20
2023-02-02T01:08:17.754Z,97894.40
2023-02-02T01:10:54.183Z,97903.80
2023-02-02T01:13:32.594Z,97897.60
2023-02-02T01:16:10.704Z,97898.20
2023-02-02T01:18:47.052Z,97900.00
2023-02-02T01:21:23.974Z,97896.00
2023-02-02T01:24:00.607Z,97897.00
2023-02-02T01:26:37.250Z,97897.80
2023-02-02T01:29:13.771Z,97898.20
2023-02-02T01:31:50.839Z,97903.60
2023-02-02T01:34:27.661Z,97906.40
2023-02-02T01:37:03.997Z,97904.00
2023-02-02T01:39:40.755Z,97913.20
2023-02-02T01:42:24.484Z,97912.80
2023-02-02T01:45:29.281Z,97914.80
2023-02-02T01:48:05.840Z,97919.60
2023-02-02T01:50:42.506Z,97919.60
2023-02-02T01:53:21.032Z,97918.60
2023-02-02T01:55:58.431Z,97915.40
2023-02-02T01:58:40.385Z,97916.40
2023-02-02T02:01:18.440Z,97919.80
2023-02-02T02:03:55.219Z,97926.20
2023-02-02T02:06:33.154Z,97927.00
2023-02-02T02:09:11.635Z,97931.40
2023-02-02T02:11:47.883Z,97926.40
2023-02-02T02:14:42.574Z,97919.80
2023-02-02T02:17:44.826Z,97919.40
2023-02-02T02:21:12.371Z,97924.00
2023-02-02T02:25:13.530Z,97928.40
2023-02-02T02:28:49.651Z,97935.80
2023-02-02T02:32:07.996Z,97933.40
2023-02-02T02:35:02.340Z,97941.60
2023-02-02T02:37:50.420Z,97944.40
2023-02-02T02:40:39.044Z,97944.40
2023-02-02T02:43:25.223Z,97949.40
2023-02-02T02:46:03.369Z,97955.60
2023-02-02T02:48:40.470Z,97957.40
2023-02-02T02:51:51.626Z,97964.20
2023-02-02T02:54:37.934Z,97962.00
2023-02-02T02:58:06.834Z,97970.00
2023-02-02T03:01:01.148Z,97971.00
2023-02-02T03:04:02.559Z,97981.40
2023-02-02T03:06:52.728Z,97980.80
2023-02-02T03:09:35.955Z,97977.00
2023-02-02T03:12:13.458Z,97987.40
2023-02-02T03:14:49.644Z,97987.40
2023-02-02T03:17:28.228Z,97988.40
2023-02-02T03:20:04.745Z,97986.80
2023-02-02T03:22:41.097Z,97994.40
2023-02-02T03:25:17.886Z,97999.40
2023-02-02T03:27:54.403Z,98003.60
2023-02-02T03:30:31.982Z,98003.00
2023-02-02T03:33:10.214Z,98010.80
2023-02-02T03:35:46.544Z,98014.20
2023-02-02T03:38:22.836Z,98011.20
2023-02-02T03:40:59.353Z,98010.20
2023-02-02T03:43:35.695Z,98011.20
2023-02-02T03:46:12.393Z,98009.60
2023-02-02T03:48:48.749Z,98010.20
2023-02-02T03:51:25.008Z,98015.00
2023-02-02T03:54:01.385Z,98016.20
2023-02-02T03:56:37.648Z,98019.00
2023-02-02T03:59:13.995Z,98014.00
2023-02-02T04:01:50.496Z,98010.80
2023-02-02T04:04:26.830Z,98011.20
2023-02-02T04:07:03.199Z,98017.80
2023-02-02T04:09:39.534Z,98017.40
2023-02-02T04:12:16.045Z,98016.40
2023-02-02T04:14:52.384Z,98022.20
2023-02-02T04:17:28.880Z,98019.20
2023-02-02T04:20:06.316Z,98015.40
2023-02-02T04:22:42.561Z,98011.20
2023-02-02T04:25:19.101Z,98012.20
2023-02-02T04:27:55.362Z,98017.20
2023-02-02T04:30:31.854Z,98015.40
2023-02-02T04:33:08.471Z,98012.20
2023-02-02T04:35:45.340Z,98022.00
2023-02-02T04:38:22.116Z,98025.60
2023-02-02T04:40:58.628Z,98024.00
2023-02-02T04:43:36.515Z,98028.60
2023-02-02T04:46:13.215Z,98026.20
2023-02-02T04:48:50.618Z,98026.60
2023-02-02T04:51:26.822Z,98028.00
2023-02-02T04:54:03.238Z,98027.60
2023-02-02T04:56:40.098Z,98030.40
2023-02-02T04:59:16.363Z,98027.80
2023-02-02T05:01:52.736Z,98029.60
2023-02-02T05:04:29.730Z,98024.60
2023-02-02T05:07:06.188Z,98032.00
2023-02-02T05:09:42.852Z,98027.80
2023-02-02T05:12:19.212Z,98028.80
2023-02-02T05:14:55.601Z,98032.40
2023-02-02T05:17:32.613Z,98034.60
2023-02-02T05:20:10.904Z,98043.80
2023-02-02T05:22:49.653Z,98044.20
2023-02-02T05:25:26.186Z,98048.60
2023-02-02T05:28:03.145Z,98042.00
2023-02-02T05:30:41.676Z,98047.40
2023-02-02T05:33:19.842Z,98048.60
2023-02-02T05:35:56.129Z,98047.40
2023-02-02T05:38:32.429Z,98040.40
2023-02-02T05:41:09.346Z,98041.20
2023-02-02T05:43:45.614Z,98041.20
2023-02-02T05:46:22.031Z,98036.80
2023-02-02T05:48:59.596Z,98038.40
2023-02-02T05:51:41.915Z,98040.80
2023-02-02T05:54:20.569Z,98042.20
2023-02-02T05:57:01.210Z,98041.00
2023-02-02T05:59:37.558Z,98045.20
2023-02-02T06:02:13.810Z,98044.80
2023-02-02T06:04:50.174Z,98041.80
2023-02-02T06:07:26.357Z,98035.40
2023-02-02T06:10:02.757Z,98036.60
2023-02-02T06:12:39.107Z,98029.60
2023-02-02T06:15:17.157Z,98033.20
2023-02-02T06:17:53.437Z,98032.00
2023-02-02T06:20:30.359Z,98024.00
2023-02-02T06:23:07.527Z,98032.20
2023-02-02T06:25:43.877Z,98035.20
2023-02-02T06:28:20.229Z,98031.60
2023-02-02T06:30:56.663Z,98028.40
2023-02-02T06:33:33.168Z,98024.80
2023-02-02T06:36:11.375Z,98024.00
2023-02-02T06:38:51.880Z,98021.80
2023-02-02T06:41:28.970Z,98015.80
2023-02-02T06:44:05.660Z,98008.20
2023-02-02T06:46:42.174Z,98006.40
2023-02-02T06:49:18.508Z,98011.20
2023-02-02T06:51:54.817Z,98006.40
2023-02-02T06:54:31.138Z,98008.20
2023-02-02T06:57:09.423Z,98006.20
2023-02-02T06:59:47.371Z,98006.00
2023-02-02T07:02:24.070Z,98006.00
2023-02-02T07:05:00.616Z,98009.20
2023-02-02T07:07:39.424Z,98000.80
2023-02-02T07:11:11.024Z,98002.00
2023-02-02T07:13:13.413Z,98000.20
2023-02-02T07:15:50.057Z,98002.60
2023-02-02T07:18:26.399Z,98009.00
2023-02-02T07:21:08.079Z,98005.20
2023-02-02T07:23:44.245Z,98005.00
2023-02-02T07:26:22.521Z,98005.80
2023-02-02T07:28:59.015Z,98007.80
2023-02-02T07:31:36.825Z,98007.60
2023-02-02T07:34:13.625Z,98016.00
2023-02-02T07:36:49.953Z,98011.60
2023-02-02T07:39:26.311Z,98008.20
2023-02-02T07:42:03.051Z,98008.80
2023-02-02T07:44:41.533Z,98008.40
2023-02-02T07:47:18.492Z,98010.60
2023-02-02T07:49:54.858Z,98004.80
2023-02-02T07:52:33.661Z,98006.60
2023-02-02T07:55:14.683Z,97998.60
2023-02-02T07:57:52.714Z,98001.40
2023-02-02T08:00:30.566Z,98005.60
2023-02-02T08:03:06.908Z,98000.20
2023-02-02T08:05:43.597Z,98002.00
2023-02-02T08:08:19.828Z,97998.40
2023-02-02T08:10:57.167Z,97998.00
2023-02-02T08:13:33.529Z,97999.20
2023-02-02T08:16:12.586Z,97992.80
2023-02-02T08:18:49.164Z,97999.60
2023-02-02T08:21:25.755Z,97992.20
2023-02-02T08:24:04.621Z,97995.20
2023-02-02T08:26:41.195Z,97996.00
2023-02-02T08:29:17.762Z,97984.20
2023-02-02T08:31:54.867Z,97992.60
2023-02-02T08:34:31.477Z,97996.20
2023-02-02T08:37:08.079Z,97995.40
2023-02-02T08:39:44.458Z,97987.20
2023-02-02T08:42:20.918Z,97986.80
2023-02-02T08:46:01.092Z,97987.00
2023-02-02T08:48:10.448Z,97985.20
2023-02-02T08:50:52.604Z,97984.80
2023-02-02T08:53:30.423Z,97981.80
2023-02-02T08:56:11.244Z,97979.40
2023-02-02T08:58:52.990Z,97986.00
2023-02-02T09:01:32.196Z,97983.00
2023-02-02T09:04:14.413Z,97978.80
2023-02-02T09:06:53.387Z,97977.60
2023-02-02T09:09:30.097Z,97980.40
2023-02-02T09:12:06.826Z,97979.40
2023-02-02T09:14:43.964Z,97974.20
2023-02-02T09:17:20.701Z,97980.20
2023-02-02T09:19:57.837Z,97972.80
2023-02-02T09:22:34.870Z,97977.80
2023-02-02T09:25:12.675Z,97987.00
2023-02-02T09:27:48.926Z,97982.60
2023-02-02T09:30:26.019Z,97978.00
2023-02-02T09:33:02.473Z,97977.80
2023-02-02T09:35:38.838Z,97974.60
2023-02-02T09:38:15.004Z,97973.00
2023-02-02T09:40:51.365Z,97979.00
2023-02-02T09:43:51.947Z,97987.40
2023-02-02T09:46:46.012Z,97991.60
2023-02-02T09:49:33.291Z,97983.40
2023-02-02T09:52:17.717Z,97984.00
2023-02-02T09:55:00.672Z,97997.40
2023-02-02T09:57:46.520Z,98004.80
2023-02-02T10:00:34.779Z,98000.80
2023-02-02T10:03:23.605Z,98007.00
2023-02-02T10:06:15.079Z,98008.80
2023-02-02T10:08:58.488Z,98011.20
2023-02-02T10:11:43.007Z,98009.40
2023-02-02T10:14:29.206Z,98010.40
2023-02-02T10:17:33.724Z,98012.20
2023-02-02T10:20:28.354Z,98019.60
2023-02-02T10:23:19.347Z,98013.20
2023-02-02T10:26:10.155Z,98023.40
2023-02-02T10:29:07.923Z,98032.60
2023-02-02T10:31:59.500Z,98021.40
2023-02-02T10:34:45.058Z,98030.40
2023-02-02T10:37:42.443Z,98026.80
2023-02-02T10:40:40.827Z,98030.00
2023-02-02T10:43:54.949Z,98035.60
2023-02-02T10:46:39.447Z,98038.20
2023-02-02T10:49:32.165Z,98034.60
2023-02-02T10:52:27.877Z,98036.40
2023-02-02T10:55:22.630Z,98044.80
2023-02-02T10:58:22.803Z,98045.80
2023-02-02T11:01:03.765Z,98049.20
2023-02-02T11:03:41.747Z,98052.80
2023-02-02T11:06:36.065Z,98058.00
2023-02-02T11:09:19.132Z,98061.80
2023-02-02T11:12:06.446Z,98057.60
2023-02-02T11:14:50.179Z,98061.40
2023-02-02T11:17:29.348Z,98064.60
2023-02-02T11:20:26.975Z,98071.40
2023-02-02T11:23:18.973Z,98078.00
2023-02-02T11:26:07.221Z,98070.20
2023-02-02T11:28:43.841Z,98070.60
2023-02-02T11:31:36.371Z,98071.20
2023-02-02T11:34:25.181Z,98077.80
2023-02-02T11:37:23.755Z,98077.00
2023-02-02T11:40:31.037Z,98085.40
2023-02-02T11:43:19.856Z,98087.80
2023-02-02T11:46:04.144Z,98093.00
2023-02-02T11:48:48.829Z,98087.40
2023-02-02T11:51:31.602Z,98100.80
2023-02-02T11:54:19.273Z,98100.20
2023-02-02T11:57:00.165Z,98101.20
2023-02-02T11:59:41.268Z,98101.40
2023-02-02T12:02:35.495Z,98106.00
2023-02-02T12:05:42.380Z,98110.40
2023-02-02T12:08:19.165Z,98113.00
2023-02-02T12:11:04.306Z,98118.20
2023-02-02T12:14:03.112Z,98127.60
2023-02-02T12:17:05.219Z,98126.60
2023-02-02T12:20:20.548Z,98126.60
2023-02-02T12:23:38.295Z,98134.20
2023-02-02T12:26:34.030Z,98137.20
2023-02-02T12:29:50.231Z,98150.40
2023-02-02T12:32:55.039Z,98150.80
2023-02-02T12:36:10.503Z,98159.40
2023-02-02T12:39:20.127Z,98156.60
2023-02-02T12:42:25.195Z,98161.60
2023-02-02T12:45:44.255Z,98170.60
2023-02-02T12:48:44.683Z,98178.00
2023-02-02T12:51:42.508Z,98179.80
2023-02-02T12:54:46.965Z,98186.00
2023-02-02T12:57:46.717Z,98191.40
2023-02-02T13:00:51.701Z,98190.80
2023-02-02T13:04:01.155Z,98199.20
2023-02-02T13:07:42.329Z,98208.40
2023-02-02T13:10:31.616Z,98207.40
2023-02-02T13:13:16.235Z,98218.60
2023-02-02T13:16:00.529Z,98221.40
2023-02-02T13:18:43.861Z,98223.80
2023-02-02T13:21:28.373Z,98226.40
2023-02-02T13:24:09.219Z,98235.20
2023-02-02T13:26:50.070Z,98226.00
2023-02-02T13:29:47.444Z,98237.20
2023-02-02T13:32:33.948Z,98240.20
2023-02-02T13:35:22.971Z,98241.60
2023-02-02T13:38:19.078Z,98246.20
2023-02-02T13:40:58.659Z,98252.20
2023-02-02T13:43:58.075Z,98266.80
2023-02-02T13:46:44.509Z,98266.00
2023-02-02T13:49:29.197Z,98274.40
2023-02-02T13:52:49.375Z,98284.40
2023-02-02T13:56:00.549Z,98291.80
2023-02-02T13:59:04.585Z,98299.60
2023-02-02T14:01:42.694Z,98299.20
2023-02-02T14:04:30.560Z,98307.80
2023-02-02T14:07:10.728Z,98306.80
2023-02-02T14:09:51.206Z,98317.60
2023-02-02T14:12:37.292Z,98317.80
2023-02-02T14:15:15.799Z,98314.80
2023-02-02T14:17:59.924Z,98323.40
2023-02-02T14:20:53.486Z,98321.60
2023-02-02T14:23:57.742Z,98333.00
2023-02-02T14:26:52.671Z,98355.00
2023-02-02T14:30:22.098Z,98360.80
2023-02-02T14:33:34.521Z,98366.80
2023-02-02T14:36:18.157Z,98372.60
2023-02-02T14:39:17.262Z,98381.60
2023-02-02T14:42:53.987Z,98384.00
2023-02-02T14:45:35.576Z,98397.20
2023-02-02T14:48:19.461Z,98402.00
2023-02-02T14:51:00.132Z,98399.80
2023-02-02T14:53:40.255Z,98405.20
2023-02-02T14:56:19.036Z,98395.20
2023-02-02T14:59:03.580Z,98405.80
2023-02-02T15:01:42.028Z,98400.40
2023-02-02T15:04:32.749Z,98409.40
2023-02-02T15:07:55.743Z,98410.80
2023-02-02T15:11:29.029Z,98411.60
2023-02-02T15:14:20.047Z,98426.20
2023-02-02T15:16:59.141Z,98425.20
2023-02-02T15:19:42.354Z,98431.40
2023-02-02T15:22:35.809Z,98446.00
2023-02-02T15:25:26.041Z,98448.40
2023-02-02T15:28:13.473Z,98452.40
2023-02-02T15:30:59.757Z,98455.40
2023-02-02T15:33:44.017Z,98465.20
2023-02-02T15:36:26.896Z,98471.20
2023-02-02T15:39:12.188Z,98479.80
2023-02-02T15:42:11.483Z,98487.60
2023-02-02T15:44:48.039Z,98490.00
2023-02-02T15:47:37.703Z,98498.20
2023-02-02T15:50:23.402Z,98501.60
2023-02-02T15:53:00.487Z,98508.00
2023-02-02T15:55:39.184Z,98518.60
2023-02-02T15:58:32.068Z,98524.60
2023-02-02T16:01:20.733Z,98533.20
2023-02-02T16:04:14.554Z,98544.00
2023-02-02T16:06:52.281Z,98552.80
2023-02-02T16:09:37.036Z,98554.80
2023-02-02T16:12:23.692Z,98564.40
2023-02-02T16:15:00.551Z,98570.60
2023-02-02T16:17:37.680Z,98571.60
2023-02-02T16:20:19.171Z,98578.20
2023-02-02T16:22:58.777Z,98581.00
2023-02-02T16:25:44.073Z,98593.60
2023-02-02T16:28:24.188Z,98597.80
2023-02-02T16:31:04.917Z,98602.00
2023-02-02T16:33:46.602Z,98607.40
2023-02-02T16:36:28.460Z,98614.40
2023-02-02T16:39:15.840Z,98617.00
2023-02-02T16:41:52.508Z,98621.80
2023-02-02T16:44:48.815Z,98621.60
2023-02-02T16:47:44.601Z,98623.60
2023-02-02T16:50:35.623Z,98631.40
2023-02-02T16:53:26.435Z,98636.60
2023-02-02T16:56:03.483Z,98627.00
2023-02-02T16:58:47.143Z,98632.60
2023-02-02T17:01:23.695Z,98638.00
2023-02-02T17:04:00.488Z,98636.20
2023-02-02T17:06:51.997Z,98645.20
2023-02-02T17:09:41.383Z,98652.00
2023-02-02T17:12:34.934Z,98658.20
2023-02-02T17:15:35.820Z,98662.80
2023-02-02T17:18:13.399Z,98663.80
2023-02-02T17:20:56.354Z,98666.40
2023-02-02T17:23:38.867Z,98673.40
2023-02-02T17:26:17.045Z,98679.20
2023-02-02T17:28:57.935Z,98683.20
2023-02-02T17:31:34.490Z,98683.00
2023-02-02T17:34:17.005Z,98689.40
2023-02-02T17:36:54.398Z,98698.60
2023-02-02T17:39:30.910Z,98709.20
2023-02-02T17:42:07.934Z,98719.40
2023-02-02T17:44:44.401Z,98723.80
2023-02-02T17:47:21.202Z,98729.00
2023-02-02T17:49:57.617Z,98734.80
2023-02-02T17:52:34.123Z,98735.00
2023-02-02T17:55:20.731Z,98740.60
2023-02-02T17:57:57.956Z,98745.20
2023-02-02T18:00:35.217Z,98748.20
2023-02-02T18:03:18.279Z,98757.20
2023-02-02T18:05:54.902Z,98749.80
2023-02-02T18:08:32.104Z,98762.80
2023-02-02T18:11:10.881Z,98763.80
2023-02-02T18:13:48.114Z,98765.20
2023-02-02T18:16:24.445Z,98774.60
2023-02-02T18:19:03.219Z,98773.40
2023-02-02T18:21:39.839Z,98773.00
2023-02-02T18:24:17.936Z,98778.40
2023-02-02T18:26:54.437Z,98784.20
2023-02-02T18:29:31.003Z,98793.20
2023-02-02T18:32:08.574Z,98799.20
2023-02-02T18:34:45.772Z,98802.60
2023-02-02T18:37:22.527Z,98809.80
2023-02-02T18:39:59.247Z,98810.80
2023-02-02T18:42:36.356Z,98815.60
2023-02-02T18:45:17.536Z,98817.60
2023-02-02T18:47:54.197Z,98827.60
2023-02-02T18:50:30.599Z,98833.60
2023-02-02T18:53:07.372Z,98837.60
2023-02-02T18:55:44.744Z,98846.20
2023-02-02T18:58:21.060Z,98853.20
2023-02-02T19:00:57.397Z,98864.20
2023-02-02T19:03:34.274Z,98869.00
2023-02-02T19:06:30.212Z,98871.60
2023-02-02T19:09:07.436Z,98876.00
2023-02-02T19:11:47.511Z,98881.40
2023-02-02T19:14:28.374Z,98878.20
2023-02-02T19:17:25.243Z,98884.40
2023-02-02T19:20:22.309Z,98891.20
2023-02-02T19:23:08.653Z,98891.60
2023-02-02T19:25:51.486Z,98902.60
2023-02-02T19:28:32.530Z,98899.60
2023-02-02T19:31:16.178Z,98906.20
2023-02-02T19:33:55.717Z,98908.20
2023-02-02T19:36:33.389Z,98912.60
2023-02-02T19:39:21.707Z,98911.80
2023-02-02T19:42:02.833Z,98921.80
2023-02-02T19:44:42.078Z,98926.60
2023-02-02T19:47:33.816Z,98929.60
2023-02-02T19:50:23.723Z,98936.60
2023-02-02T19:53:02.444Z,98943.80
2023-02-02T19:55:44.340Z,98949.60
2023-02-02T19:58:26.211Z,98955.20
2023-02-02T20:01:11.497Z,98961.40
2023-02-02T20:03:48.596Z,98968.80
2023-02-02T20:06:30.664Z,98975.20
2023-02-02T20:09:12.179Z,98976.00
2023-02-02T20:11:51.517Z,98981.20
2023-02-02T20:14:36.932Z,98985.80
2023-02-02T20:17:32.972Z,98995.20
2023-02-02T20:20:28.141Z,99003.80
2023-02-02T20:23:07.234Z,99010.20
2023-02-02T20:25:45.643Z,99016.00
2023-02-02T20:28:43.444Z,99016.60
2023-02-02T20:31:25.495Z,99026.00
2023-02-02T20:34:02.187Z,99033.40
2023-02-02T20:36:44.141Z,99037.80
2023-02-02T20:39:36.522Z,99044.40
2023-02-02T20:42:13.261Z,99051.60
2023-02-02T20:44:49.893Z,99059.80
2023-02-02T20:47:26.607Z,99062.20
2023-02-02T20:50:04.267Z,99064.00
2023-02-02T20:52:40.823Z,99071.00
2023-02-02T20:55:17.427Z,99077.60
2023-02-02T20:57:53.807Z,99081.80
2023-02-02T21:00:30.687Z,99088.80
2023-02-02T21:03:07.193Z,99084.00
2023-02-02T21:05:43.563Z,99089.20
2023-02-02T21:08:20.090Z,99091.60
2023-02-02T21:10:56.357Z,99088.60
2023-02-02T21:13:32.700Z,99093.20
2023-02-02T21:16:10.214Z,99100.80
2023-02-02T21:18:47.519Z,99101.00
2023-02-02T21:21:24.351Z,99099.00
2023-02-02T21:24:01.157Z,99097.20
2023-02-02T21:26:37.507Z,99091.80
2023-02-02T21:29:13.886Z,99097.80
2023-02-02T21:31:50.233Z,99104.20
2023-02-02T21:34:27.308Z,99109.00
2023-02-02T21:37:03.917Z,99115.20
2023-02-02T21:39:46.722Z,99116.40
2023-02-02T21:42:26.025Z,99120.60
2023-02-02T21:45:33.785Z,99123.20
2023-02-02T21:48:30.729Z,99129.20
2023-02-02T21:51:25.338Z,99136.40
2023-02-02T21:54:15.695Z,99132.00
2023-02-02T21:56:53.400Z,99133.60
2023-02-02T21:59:37.807Z,99142.40
2023-02-02T22:02:44.806Z,99145.40
2023-02-02T22:05:30.212Z,99149.00
2023-02-02T22:08:24.668Z,99159.20
2023-02-02T22:11:01.397Z,99168.40
2023-02-02T22:13:39.398Z,99168.40
2023-02-02T22:16:21.483Z,99176.20
2023-02-02T22:18:59.433Z,99179.60
2023-02-02T22:21:36.647Z,99178.60
2023-02-02T22:24:16.996Z,99184.80
2023-02-02T22:26:53.242Z,99181.60
2023-02-02T22:29:35.655Z,99195.40
2023-02-02T22:32:11.951Z,99194.80
2023-02-02T22:34:48.838Z,99199.00
2023-02-02T22:37:25.090Z,99201.80
2023-02-02T22:40:01.401Z,99205.20
2023-02-02T22:42:37.637Z,99196.60
2023-02-02T22:45:15.555Z,99193.40
2023-02-02T22:47:52.433Z,99191.60
2023-02-02T22:50:32.062Z,99200.00
2023-02-02T22:53:08.810Z,99207.60
2023-02-02T22:55:45.176Z,99219.20
2023-02-02T22:58:21.455Z,99219.20
2023-02-02T23:00:57.757Z,99224.60
2023-02-02T23:03:34.165Z,99234.40
2023-02-02T23:06:10.685Z,99239.80
2023-02-02T23:08:46.913Z,99245.40
2023-02-02T23:11:23.230Z,99246.20
2023-02-02T23:13:59.744Z,99247.00
2023-02-02T23:16:36.302Z,99250.80
2023-02-02T23:19:12.588Z,99249.80
2023-02-02T23:21:48.983Z,99256.60
2023-02-02T23:24:25.746Z,99255.00
2023-02-02T23:27:02.202Z,99251.20
2023-02-02T23:29:38.574Z,99252.00
2023-02-02T23:32:14.925Z,99255.20
2023-02-02T23:34:51.233Z,99266.40
2023-02-02T23:37:27.695Z,99271.60
2023-02-02T23:40:03.995Z,99272.40
2023-02-02T23:42:40.412Z,99276.40
2023-02-02T23:45:17.486Z,99276.40
2023-02-02T23:47:54.062Z,99275.60
2023-02-02T23:50:30.957Z,99274.40
2023-02-02T23:53:07.660Z,99276.80
2023-02-02T23:55:46.634Z,99286.60
2023-02-02T23:58:22.980Z,99285.00
